sensor_id;sensor_type;location;lat;lon;timestamp;temperature;humidity
5556;DHT22;2801;50.972;7.856;2023-04-06T00:01:01;-1.60;94.00
5556;DHT22;2801;50.972;7.856;2023-04-06T00:03:28;-1.60;94.00
5556;DHT22;2801;50.972;7.856;2023-04-06T00:05:56;-1.60;94.00
5556;DHT22;2801;50.972;7.856;2023-04-06T00:08:23;-1.70;94.10
5556;DHT22;2801;50.972;7.856;2023-04-06T00:10:50;-1.70;94.20
5556;DHT22;2801;50.972;7.856;2023-04-06T00:13:17;-1.70;94.20
5556;DHT22;2801;50.972;7.856;2023-04-06T00:15:44;-1.70;94.30
5556;DHT22;2801;50.972;7.856;2023-04-06T00:18:11;-1.70;94.30
5556;DHT22;2801;50.972;7.856;2023-04-06T00:20:39;-1.70;94.40
5556;DHT22;2801;50.972;7.856;2023-04-06T00:23:06;-1.80;94.40
5556;DHT22;2801;50.972;7.856;2023-04-06T00:25:33;-1.80;94.50
5556;DHT22;2801;50.972;7.856;2023-04-06T00:28:00;-1.80;94.60
5556;DHT22;2801;50.972;7.856;2023-04-06T00:30:27;-1.80;94.60
5556;DHT22;2801;50.972;7.856;2023-04-06T00:32:54;-1.90;94.70
5556;DHT22;2801;50.972;7.856;2023-04-06T00:35:21;-1.90;94.70
5556;DHT22;2801;50.972;7.856;2023-04-06T00:37:48;-2.00;94.80
5556;DHT22;2801;50.972;7.856;2023-04-06T00:40:15;-2.00;94.90
5556;DHT22;2801;50.972;7.856;2023-04-06T00:42:43;-2.00;95.00
5556;DHT22;2801;50.972;7.856;2023-04-06T00:45:11;-2.00;95.00
5556;DHT22;2801;50.972;7.856;2023-04-06T00:47:38;-2.00;95.10
5556;DHT22;2801;50.972;7.856;2023-04-06T00:50:05;-2.10;95.10
5556;DHT22;2801;50.972;7.856;2023-04-06T00:52:34;-2.10;95.10
5556;DHT22;2801;50.972;7.856;2023-04-06T00:55:03;-2.10;95.30
5556;DHT22;2801;50.972;7.856;2023-04-06T00:57:31;-2.20;95.20
5556;DHT22;2801;50.972;7.856;2023-04-06T00:59:58;-2.20;95.30
5556;DHT22;2801;50.972;7.856;2023-04-06T01:02:25;-2.20;95.40
5556;DHT22;2801;50.972;7.856;2023-04-06T01:04:53;-2.20;95.40
5556;DHT22;2801;50.972;7.856;2023-04-06T01:07:21;-2.30;95.50
5556;DHT22;2801;50.972;7.856;2023-04-06T01:09:48;-2.30;95.50
5556;DHT22;2801;50.972;7.856;2023-04-06T01:12:15;-2.30;95.60
5556;DHT22;2801;50.972;7.856;2023-04-06T01:14:42;-2.30;96.00
5556;DHT22;2801;50.972;7.856;2023-04-06T01:17:09;-2.30;95.70
5556;DHT22;2801;50.972;7.856;2023-04-06T01:19:37;-2.40;95.70
5556;DHT22;2801;50.972;7.856;2023-04-06T01:22:04;-2.40;95.70
5556;DHT22;2801;50.972;7.856;2023-04-06T01:24:31;-2.40;95.80
5556;DHT22;2801;50.972;7.856;2023-04-06T01:26:59;-2.30;95.80
5556;DHT22;2801;50.972;7.856;2023-04-06T01:29:27;-2.40;95.80
5556;DHT22;2801;50.972;7.856;2023-04-06T01:31:54;-2.50;95.90
5556;DHT22;2801;50.972;7.856;2023-04-06T01:34:22;-2.60;95.90
5556;DHT22;2801;50.972;7.856;2023-04-06T01:36:49;-2.60;96.00
5556;DHT22;2801;50.972;7.856;2023-04-06T01:39:16;-2.60;96.10
5556;DHT22;2801;50.972;7.856;2023-04-06T01:41:43;-2.70;96.20
5556;DHT22;2801;50.972;7.856;2023-04-06T01:44:10;-2.60;96.30
5556;DHT22;2801;50.972;7.856;2023-04-06T01:46:38;-2.60;96.30
5556;DHT22;2801;50.972;7.856;2023-04-06T01:49:05;-2.60;96.30
5556;DHT22;2801;50.972;7.856;2023-04-06T01:51:32;-2.70;96.30
5556;DHT22;2801;50.972;7.856;2023-04-06T01:54:04;-2.70;96.40
5556;DHT22;2801;50.972;7.856;2023-04-06T01:56:32;-2.70;96.40
5556;DHT22;2801;50.972;7.856;2023-04-06T01:58:59;-2.70;96.50
5556;DHT22;2801;50.972;7.856;2023-04-06T02:01:26;-2.70;96.60
5556;DHT22;2801;50.972;7.856;2023-04-06T02:03:53;-2.70;96.70
5556;DHT22;2801;50.972;7.856;2023-04-06T02:06:20;-2.70;96.70
5556;DHT22;2801;50.972;7.856;2023-04-06T02:08:47;-2.70;96.70
5556;DHT22;2801;50.972;7.856;2023-04-06T02:11:14;-2.80;96.60
5556;DHT22;2801;50.972;7.856;2023-04-06T02:13:41;-2.70;96.80
5556;DHT22;2801;50.972;7.856;2023-04-06T02:16:08;-2.80;96.80
5556;DHT22;2801;50.972;7.856;2023-04-06T02:18:36;-2.60;97.00
5556;DHT22;2801;50.972;7.856;2023-04-06T02:21:03;-2.80;96.90
5556;DHT22;2801;50.972;7.856;2023-04-06T02:23:30;-2.80;97.00
5556;DHT22;2801;50.972;7.856;2023-04-06T02:25:57;-2.80;97.00
5556;DHT22;2801;50.972;7.856;2023-04-06T02:28:24;-2.80;97.10
5556;DHT22;2801;50.972;7.856;2023-04-06T02:30:51;-2.80;97.20
5556;DHT22;2801;50.972;7.856;2023-04-06T02:33:18;-2.80;97.20
5556;DHT22;2801;50.972;7.856;2023-04-06T02:35:46;-2.80;97.30
5556;DHT22;2801;50.972;7.856;2023-04-06T02:38:13;-2.90;97.30
5556;DHT22;2801;50.972;7.856;2023-04-06T02:40:40;-2.80;97.40
5556;DHT22;2801;50.972;7.856;2023-04-06T02:43:07;-2.90;97.40
5556;DHT22;2801;50.972;7.856;2023-04-06T02:45:34;-2.90;97.40
5556;DHT22;2801;50.972;7.856;2023-04-06T02:48:01;-3.00;97.50
5556;DHT22;2801;50.972;7.856;2023-04-06T02:50:28;-3.00;97.50
5556;DHT22;2801;50.972;7.856;2023-04-06T02:52:55;-3.10;97.50
5556;DHT22;2801;50.972;7.856;2023-04-06T02:55:23;-3.00;97.70
5556;DHT22;2801;50.972;7.856;2023-04-06T02:57:50;-3.00;97.80
5556;DHT22;2801;50.972;7.856;2023-04-06T03:00:17;-3.10;97.80
5556;DHT22;2801;50.972;7.856;2023-04-06T03:02:44;-3.10;97.90
5556;DHT22;2801;50.972;7.856;2023-04-06T03:05:11;-3.10;97.90
5556;DHT22;2801;50.972;7.856;2023-04-06T03:07:38;-3.10;97.90
5556;DHT22;2801;50.972;7.856;2023-04-06T03:10:06;-3.10;98.00
5556;DHT22;2801;50.972;7.856;2023-04-06T03:12:34;-3.10;98.00
5556;DHT22;2801;50.972;7.856;2023-04-06T03:15:01;-3.20;97.90
5556;DHT22;2801;50.972;7.856;2023-04-06T03:17:28;-3.20;98.10
5556;DHT22;2801;50.972;7.856;2023-04-06T03:19:55;-3.20;98.20
5556;DHT22;2801;50.972;7.856;2023-04-06T03:22:22;-3.20;98.40
5556;DHT22;2801;50.972;7.856;2023-04-06T03:24:49;-3.30;98.20
5556;DHT22;2801;50.972;7.856;2023-04-06T03:27:16;-3.30;98.30
5556;DHT22;2801;50.972;7.856;2023-04-06T03:29:43;-3.30;98.30
5556;DHT22;2801;50.972;7.856;2023-04-06T03:32:10;-3.30;98.30
5556;DHT22;2801;50.972;7.856;2023-04-06T03:34:38;-3.30;98.40
5556;DHT22;2801;50.972;7.856;2023-04-06T03:37:06;-3.30;98.40
5556;DHT22;2801;50.972;7.856;2023-04-06T03:39:36;-3.30;98.40
5556;DHT22;2801;50.972;7.856;2023-04-06T03:42:03;-3.30;98.40
5556;DHT22;2801;50.972;7.856;2023-04-06T03:44:30;-3.40;98.40
5556;DHT22;2801;50.972;7.856;2023-04-06T03:46:58;-3.40;98.40
5556;DHT22;2801;50.972;7.856;2023-04-06T03:49:26;-3.50;98.40
5556;DHT22;2801;50.972;7.856;2023-04-06T03:51:53;-3.50;98.50
5556;DHT22;2801;50.972;7.856;2023-04-06T03:54:21;-3.50;98.50
5556;DHT22;2801;50.972;7.856;2023-04-06T03:56:48;-3.50;98.60
5556;DHT22;2801;50.972;7.856;2023-04-06T03:59:15;-3.50;98.50
5556;DHT22;2801;50.972;7.856;2023-04-06T04:01:42;-3.60;98.50
5556;DHT22;2801;50.972;7.856;2023-04-06T04:04:10;-3.60;98.60
5556;DHT22;2801;50.972;7.856;2023-04-06T04:06:37;-3.70;98.70
5556;DHT22;2801;50.972;7.856;2023-04-06T04:09:04;-3.70;98.80
5556;DHT22;2801;50.972;7.856;2023-04-06T04:11:31;-3.60;98.90
5556;DHT22;2801;50.972;7.856;2023-04-06T04:13:58;-3.60;99.00
5556;DHT22;2801;50.972;7.856;2023-04-06T04:16:25;-3.60;99.00
5556;DHT22;2801;50.972;7.856;2023-04-06T04:18:52;-3.60;99.10
5556;DHT22;2801;50.972;7.856;2023-04-06T04:21:19;-3.60;99.10
5556;DHT22;2801;50.972;7.856;2023-04-06T04:23:47;-3.60;99.00
5556;DHT22;2801;50.972;7.856;2023-04-06T04:26:14;-3.60;99.10
5556;DHT22;2801;50.972;7.856;2023-04-06T04:28:41;-3.70;99.10
5556;DHT22;2801;50.972;7.856;2023-04-06T04:31:08;-3.70;99.20
5556;DHT22;2801;50.972;7.856;2023-04-06T04:33:35;-3.70;99.20
5556;DHT22;2801;50.972;7.856;2023-04-06T04:36:02;-3.70;99.30
5556;DHT22;2801;50.972;7.856;2023-04-06T04:38:30;-3.70;99.30
5556;DHT22;2801;50.972;7.856;2023-04-06T04:40:57;-3.70;99.30
5556;DHT22;2801;50.972;7.856;2023-04-06T04:43:24;-3.80;99.40
5556;DHT22;2801;50.972;7.856;2023-04-06T04:45:51;-3.80;99.40
5556;DHT22;2801;50.972;7.856;2023-04-06T04:48:19;-3.80;99.50
5556;DHT22;2801;50.972;7.856;2023-04-06T04:50:46;-3.80;99.60
5556;DHT22;2801;50.972;7.856;2023-04-06T04:53:13;-3.80;99.60
5556;DHT22;2801;50.972;7.856;2023-04-06T04:55:40;-3.60;99.70
5556;DHT22;2801;50.972;7.856;2023-04-06T04:58:07;-3.70;99.70
5556;DHT22;2801;50.972;7.856;2023-04-06T05:00:35;-3.70;99.70
5556;DHT22;2801;50.972;7.856;2023-04-06T05:03:04;-3.70;99.70
5556;DHT22;2801;50.972;7.856;2023-04-06T05:05:32;-3.80;99.60
5556;DHT22;2801;50.972;7.856;2023-04-06T05:07:59;-3.70;99.70
5556;DHT22;2801;50.972;7.856;2023-04-06T05:10:26;-3.60;99.90
5556;DHT22;2801;50.972;7.856;2023-04-06T05:12:53;-3.60;99.90
5556;DHT22;2801;50.972;7.856;2023-04-06T05:15:21;-3.60;99.90
5556;DHT22;2801;50.972;7.856;2023-04-06T05:17:48;-3.40;99.90
5556;DHT22;2801;50.972;7.856;2023-04-06T05:20:15;-3.20;99.90
5556;DHT22;2801;50.972;7.856;2023-04-06T05:22:42;-2.90;99.90
5556;DHT22;2801;50.972;7.856;2023-04-06T05:25:09;-2.40;99.90
5556;DHT22;2801;50.972;7.856;2023-04-06T05:27:36;-2.00;99.90
5556;DHT22;2801;50.972;7.856;2023-04-06T05:30:04;-1.50;99.90
5556;DHT22;2801;50.972;7.856;2023-04-06T05:32:32;-1.00;99.90
5556;DHT22;2801;50.972;7.856;2023-04-06T05:34:59;-0.40;99.90
5556;DHT22;2801;50.972;7.856;2023-04-06T05:37:27;0.30;99.90
5556;DHT22;2801;50.972;7.856;2023-04-06T05:39:54;0.90;99.90
5556;DHT22;2801;50.972;7.856;2023-04-06T05:42:22;1.40;99.60
5556;DHT22;2801;50.972;7.856;2023-04-06T05:44:49;2.10;99.20
5556;DHT22;2801;50.972;7.856;2023-04-06T05:47:16;2.70;98.60
5556;DHT22;2801;50.972;7.856;2023-04-06T05:49:43;3.30;97.80
5556;DHT22;2801;50.972;7.856;2023-04-06T05:52:11;3.80;97.30
5556;DHT22;2801;50.972;7.856;2023-04-06T05:54:38;4.30;96.80
5556;DHT22;2801;50.972;7.856;2023-04-06T05:57:05;4.80;96.40
5556;DHT22;2801;50.972;7.856;2023-04-06T05:59:32;5.20;95.90
5556;DHT22;2801;50.972;7.856;2023-04-06T06:01:59;5.80;95.40
5556;DHT22;2801;50.972;7.856;2023-04-06T06:04:27;6.40;94.60
5556;DHT22;2801;50.972;7.856;2023-04-06T06:06:55;7.10;93.80
5556;DHT22;2801;50.972;7.856;2023-04-06T06:09:22;7.60;92.80
5556;DHT22;2801;50.972;7.856;2023-04-06T06:11:49;8.20;92.20
5556;DHT22;2801;50.972;7.856;2023-04-06T06:14:16;8.80;91.30
5556;DHT22;2801;50.972;7.856;2023-04-06T06:16:43;9.40;90.40
5556;DHT22;2801;50.972;7.856;2023-04-06T06:19:10;10.00;87.80
5556;DHT22;2801;50.972;7.856;2023-04-06T06:21:37;10.60;86.10
5556;DHT22;2801;50.972;7.856;2023-04-06T06:24:05;11.10;83.80
5556;DHT22;2801;50.972;7.856;2023-04-06T06:26:32;11.40;82.20
5556;DHT22;2801;50.972;7.856;2023-04-06T06:29:02;11.80;80.90
5556;DHT22;2801;50.972;7.856;2023-04-06T06:31:32;12.30;79.90
5556;DHT22;2801;50.972;7.856;2023-04-06T06:33:59;12.80;78.50
5556;DHT22;2801;50.972;7.856;2023-04-06T06:36:26;13.20;77.30
5556;DHT22;2801;50.972;7.856;2023-04-06T06:38:53;13.60;76.10
5556;DHT22;2801;50.972;7.856;2023-04-06T06:41:21;13.90;74.80
5556;DHT22;2801;50.972;7.856;2023-04-06T06:43:48;13.80;64.70
5556;DHT22;2801;50.972;7.856;2023-04-06T06:46:15;13.60;66.20
5556;DHT22;2801;50.972;7.856;2023-04-06T06:48:42;13.50;68.60
5556;DHT22;2801;50.972;7.856;2023-04-06T06:51:09;13.50;69.60
5556;DHT22;2801;50.972;7.856;2023-04-06T06:53:38;13.60;69.00
5556;DHT22;2801;50.972;7.856;2023-04-06T06:56:05;13.40;65.00
5556;DHT22;2801;50.972;7.856;2023-04-06T06:58:32;13.50;71.40
5556;DHT22;2801;50.972;7.856;2023-04-06T07:01:00;13.90;72.80
5556;DHT22;2801;50.972;7.856;2023-04-06T07:03:27;14.30;70.40
5556;DHT22;2801;50.972;7.856;2023-04-06T07:05:55;14.50;63.10
5556;DHT22;2801;50.972;7.856;2023-04-06T07:08:23;14.40;60.20
5556;DHT22;2801;50.972;7.856;2023-04-06T07:10:51;14.50;66.80
5556;DHT22;2801;50.972;7.856;2023-04-06T07:13:20;14.50;67.00
5556;DHT22;2801;50.972;7.856;2023-04-06T07:15:50;14.90;65.10
5556;DHT22;2801;50.972;7.856;2023-04-06T07:18:21;15.20;61.40
5556;DHT22;2801;50.972;7.856;2023-04-06T07:20:49;15.50;64.70
5556;DHT22;2801;50.972;7.856;2023-04-06T07:23:16;15.70;58.50
5556;DHT22;2801;50.972;7.856;2023-04-06T07:25:43;15.70;60.00
5556;DHT22;2801;50.972;7.856;2023-04-06T07:28:10;16.00;64.30
5556;DHT22;2801;50.972;7.856;2023-04-06T07:30:38;16.50;63.30
5556;DHT22;2801;50.972;7.856;2023-04-06T07:33:05;16.20;58.30
5556;DHT22;2801;50.972;7.856;2023-04-06T07:35:33;15.80;52.00
5556;DHT22;2801;50.972;7.856;2023-04-06T07:38:01;15.80;59.60
5556;DHT22;2801;50.972;7.856;2023-04-06T07:40:30;16.20;57.00
5556;DHT22;2801;50.972;7.856;2023-04-06T07:42:59;16.00;55.40
5556;DHT22;2801;50.972;7.856;2023-04-06T07:45:26;16.30;58.20
5556;DHT22;2801;50.972;7.856;2023-04-06T07:47:53;16.00;57.30
5556;DHT22;2801;50.972;7.856;2023-04-06T07:50:20;16.20;56.50
5556;DHT22;2801;50.972;7.856;2023-04-06T07:52:48;16.20;55.10
5556;DHT22;2801;50.972;7.856;2023-04-06T07:55:16;16.50;57.60
5556;DHT22;2801;50.972;7.856;2023-04-06T07:57:43;16.90;54.50
5556;DHT22;2801;50.972;7.856;2023-04-06T08:00:11;17.00;54.20
5556;DHT22;2801;50.972;7.856;2023-04-06T08:02:39;16.90;53.80
5556;DHT22;2801;50.972;7.856;2023-04-06T08:05:07;16.90;56.20
5556;DHT22;2801;50.972;7.856;2023-04-06T08:07:34;17.20;56.90
5556;DHT22;2801;50.972;7.856;2023-04-06T08:10:03;17.90;57.50
5556;DHT22;2801;50.972;7.856;2023-04-06T08:12:32;18.60;57.20
5556;DHT22;2801;50.972;7.856;2023-04-06T08:15:00;19.20;57.00
5556;DHT22;2801;50.972;7.856;2023-04-06T08:17:29;19.40;54.20
5556;DHT22;2801;50.972;7.856;2023-04-06T08:19:57;19.30;53.50
5556;DHT22;2801;50.972;7.856;2023-04-06T08:22:25;18.80;46.70
5556;DHT22;2801;50.972;7.856;2023-04-06T08:24:52;18.40;51.40
5556;DHT22;2801;50.972;7.856;2023-04-06T08:27:20;18.40;53.80
5556;DHT22;2801;50.972;7.856;2023-04-06T08:29:49;18.80;54.90
5556;DHT22;2801;50.972;7.856;2023-04-06T08:32:16;19.20;54.30
5556;DHT22;2801;50.972;7.856;2023-04-06T08:34:43;19.70;54.30
5556;DHT22;2801;50.972;7.856;2023-04-06T08:37:10;20.20;53.70
5556;DHT22;2801;50.972;7.856;2023-04-06T08:39:37;20.20;51.80
5556;DHT22;2801;50.972;7.856;2023-04-06T08:42:10;20.10;50.10
5556;DHT22;2801;50.972;7.856;2023-04-06T08:44:39;20.10;52.50
5556;DHT22;2801;50.972;7.856;2023-04-06T08:47:07;20.20;50.20
5556;DHT22;2801;50.972;7.856;2023-04-06T08:49:37;20.00;51.80
5556;DHT22;2801;50.972;7.856;2023-04-06T08:52:08;19.80;53.30
5556;DHT22;2801;50.972;7.856;2023-04-06T08:54:38;20.20;52.80
5556;DHT22;2801;50.972;7.856;2023-04-06T08:57:06;20.70;52.70
5556;DHT22;2801;50.972;7.856;2023-04-06T08:59:34;21.10;51.80
5556;DHT22;2801;50.972;7.856;2023-04-06T09:02:04;21.80;50.70
5556;DHT22;2801;50.972;7.856;2023-04-06T09:04:33;22.00;51.40
5556;DHT22;2801;50.972;7.856;2023-04-06T09:07:02;22.40;50.90
5556;DHT22;2801;50.972;7.856;2023-04-06T09:09:29;22.50;49.40
5556;DHT22;2801;50.972;7.856;2023-04-06T09:11:56;22.50;49.40
5556;DHT22;2801;50.972;7.856;2023-04-06T09:14:38;22.40;49.40
5556;DHT22;2801;50.972;7.856;2023-04-06T09:17:06;22.80;49.60
5556;DHT22;2801;50.972;7.856;2023-04-06T09:19:33;22.70;48.20
5556;DHT22;2801;50.972;7.856;2023-04-06T09:22:04;22.80;49.40
5556;DHT22;2801;50.972;7.856;2023-04-06T09:24:48;21.90;45.40
5556;DHT22;2801;50.972;7.856;2023-04-06T09:27:17;21.70;47.50
5556;DHT22;2801;50.972;7.856;2023-04-06T09:29:44;21.10;47.20
5556;DHT22;2801;50.972;7.856;2023-04-06T09:32:12;20.60;47.80
5556;DHT22;2801;50.972;7.856;2023-04-06T09:34:43;20.80;47.40
5556;DHT22;2801;50.972;7.856;2023-04-06T09:37:18;21.00;49.00
5556;DHT22;2801;50.972;7.856;2023-04-06T09:39:46;21.30;49.20
5556;DHT22;2801;50.972;7.856;2023-04-06T09:42:24;21.80;48.80
5556;DHT22;2801;50.972;7.856;2023-04-06T09:44:55;22.10;47.40
5556;DHT22;2801;50.972;7.856;2023-04-06T09:47:22;22.20;47.70
5556;DHT22;2801;50.972;7.856;2023-04-06T09:49:57;22.40;46.20
5556;DHT22;2801;50.972;7.856;2023-04-06T09:52:37;21.70;47.00
5556;DHT22;2801;50.972;7.856;2023-04-06T09:55:08;21.00;48.80
5556;DHT22;2801;50.972;7.856;2023-04-06T09:58:04;21.00;50.40
5556;DHT22;2801;50.972;7.856;2023-04-06T10:01:00;21.20;48.30
5556;DHT22;2801;50.972;7.856;2023-04-06T10:06:23;19.10;51.80
5556;DHT22;2801;50.972;7.856;2023-04-06T10:08:56;17.90;51.00
5556;DHT22;2801;50.972;7.856;2023-04-06T10:11:24;17.10;53.70
5556;DHT22;2801;50.972;7.856;2023-04-06T10:13:52;16.70;55.20
5556;DHT22;2801;50.972;7.856;2023-04-06T10:16:19;16.50;54.40
5556;DHT22;2801;50.972;7.856;2023-04-06T10:18:49;16.60;55.40
5556;DHT22;2801;50.972;7.856;2023-04-06T10:21:23;17.00;54.50
5556;DHT22;2801;50.972;7.856;2023-04-06T10:23:59;17.20;54.30
5556;DHT22;2801;50.972;7.856;2023-04-06T10:26:28;17.30;54.50
5556;DHT22;2801;50.972;7.856;2023-04-06T10:29:04;17.40;53.90
5556;DHT22;2801;50.972;7.856;2023-04-06T10:31:32;17.30;52.80
5556;DHT22;2801;50.972;7.856;2023-04-06T10:34:01;17.30;53.50
5556;DHT22;2801;50.972;7.856;2023-04-06T10:36:32;17.40;54.70
5556;DHT22;2801;50.972;7.856;2023-04-06T10:39:05;17.50;53.90
5556;DHT22;2801;50.972;7.856;2023-04-06T10:41:34;17.20;52.00
5556;DHT22;2801;50.972;7.856;2023-04-06T10:44:23;16.90;55.20
5556;DHT22;2801;50.972;7.856;2023-04-06T10:46:59;16.90;55.70
5556;DHT22;2801;50.972;7.856;2023-04-06T10:49:29;16.70;55.00
5556;DHT22;2801;50.972;7.856;2023-04-06T10:51:57;16.50;55.50
5556;DHT22;2801;50.972;7.856;2023-04-06T10:54:25;16.30;56.30
5556;DHT22;2801;50.972;7.856;2023-04-06T10:56:53;16.10;56.70
5556;DHT22;2801;50.972;7.856;2023-04-06T10:59:22;16.10;57.50
5556;DHT22;2801;50.972;7.856;2023-04-06T11:01:51;16.20;57.20
5556;DHT22;2801;50.972;7.856;2023-04-06T11:04:20;16.30;57.60
5556;DHT22;2801;50.972;7.856;2023-04-06T11:06:48;16.20;57.30
5556;DHT22;2801;50.972;7.856;2023-04-06T11:09:43;16.20;57.60
5556;DHT22;2801;50.972;7.856;2023-04-06T11:12:36;16.30;57.50
5556;DHT22;2801;50.972;7.856;2023-04-06T11:15:04;16.10;57.30
5556;DHT22;2801;50.972;7.856;2023-04-06T11:17:35;16.00;56.70
5556;DHT22;2801;50.972;7.856;2023-04-06T11:20:09;15.80;58.20
5556;DHT22;2801;50.972;7.856;2023-04-06T11:22:48;16.00;58.40
5556;DHT22;2801;50.972;7.856;2023-04-06T11:25:16;16.10;58.30
5556;DHT22;2801;50.972;7.856;2023-04-06T11:27:45;16.10;58.70
5556;DHT22;2801;50.972;7.856;2023-04-06T11:30:14;16.10;57.30
5556;DHT22;2801;50.972;7.856;2023-04-06T11:32:43;16.10;58.30
5556;DHT22;2801;50.972;7.856;2023-04-06T11:35:22;16.00;58.70
5556;DHT22;2801;50.972;7.856;2023-04-06T11:37:50;16.00;58.40
5556;DHT22;2801;50.972;7.856;2023-04-06T11:40:24;16.00;59.10
5556;DHT22;2801;50.972;7.856;2023-04-06T11:42:55;16.10;59.30
5556;DHT22;2801;50.972;7.856;2023-04-06T11:45:26;16.00;58.10
5556;DHT22;2801;50.972;7.856;2023-04-06T11:47:59;16.00;58.50
5556;DHT22;2801;50.972;7.856;2023-04-06T11:50:32;15.80;59.50
5556;DHT22;2801;50.972;7.856;2023-04-06T11:53:02;15.60;59.00
5556;DHT22;2801;50.972;7.856;2023-04-06T11:55:37;15.60;59.60
5556;DHT22;2801;50.972;7.856;2023-04-06T11:58:05;15.50;60.50
5556;DHT22;2801;50.972;7.856;2023-04-06T12:00:33;15.50;60.70
5556;DHT22;2801;50.972;7.856;2023-04-06T12:03:01;15.60;59.80
5556;DHT22;2801;50.972;7.856;2023-04-06T12:05:28;15.40;59.80
5556;DHT22;2801;50.972;7.856;2023-04-06T12:07:55;15.40;59.60
5556;DHT22;2801;50.972;7.856;2023-04-06T12:10:27;15.40;60.20
5556;DHT22;2801;50.972;7.856;2023-04-06T12:12:54;15.50;60.60
5556;DHT22;2801;50.972;7.856;2023-04-06T12:15:22;15.40;59.90
5556;DHT22;2801;50.972;7.856;2023-04-06T12:17:49;15.40;60.50
5556;DHT22;2801;50.972;7.856;2023-04-06T12:20:16;15.20;59.70
5556;DHT22;2801;50.972;7.856;2023-04-06T12:22:52;15.40;62.50
5556;DHT22;2801;50.972;7.856;2023-04-06T12:25:20;15.50;58.60
5556;DHT22;2801;50.972;7.856;2023-04-06T12:27:47;15.70;60.00
5556;DHT22;2801;50.972;7.856;2023-04-06T12:30:14;15.60;61.40
5556;DHT22;2801;50.972;7.856;2023-04-06T12:32:42;15.80;61.20
5556;DHT22;2801;50.972;7.856;2023-04-06T12:35:09;15.60;59.70
5556;DHT22;2801;50.972;7.856;2023-04-06T12:37:38;15.50;61.00
5556;DHT22;2801;50.972;7.856;2023-04-06T12:40:05;15.40;60.40
5556;DHT22;2801;50.972;7.856;2023-04-06T12:42:33;15.30;60.90
5556;DHT22;2801;50.972;7.856;2023-04-06T12:45:00;15.10;61.90
5556;DHT22;2801;50.972;7.856;2023-04-06T12:47:27;15.20;61.90
5556;DHT22;2801;50.972;7.856;2023-04-06T12:49:55;15.20;62.60
5556;DHT22;2801;50.972;7.856;2023-04-06T12:52:23;15.00;61.30
5556;DHT22;2801;50.972;7.856;2023-04-06T12:54:50;14.70;62.10
5556;DHT22;2801;50.972;7.856;2023-04-06T12:57:17;14.60;62.50
5556;DHT22;2801;50.972;7.856;2023-04-06T12:59:45;14.50;62.00
5556;DHT22;2801;50.972;7.856;2023-04-06T13:02:13;14.50;62.70
5556;DHT22;2801;50.972;7.856;2023-04-06T13:04:40;14.60;62.80
5556;DHT22;2801;50.972;7.856;2023-04-06T13:07:08;14.80;62.90
5556;DHT22;2801;50.972;7.856;2023-04-06T13:09:35;14.80;62.20
5556;DHT22;2801;50.972;7.856;2023-04-06T13:12:02;15.00;62.60
5556;DHT22;2801;50.972;7.856;2023-04-06T13:14:29;15.10;62.10
5556;DHT22;2801;50.972;7.856;2023-04-06T13:16:57;15.20;61.90
5556;DHT22;2801;50.972;7.856;2023-04-06T13:19:24;15.10;61.20
5556;DHT22;2801;50.972;7.856;2023-04-06T13:21:52;14.90;59.60
5556;DHT22;2801;50.972;7.856;2023-04-06T13:24:19;14.80;61.10
5556;DHT22;2801;50.972;7.856;2023-04-06T13:26:46;14.70;61.60
5556;DHT22;2801;50.972;7.856;2023-04-06T13:29:13;14.50;59.90
5556;DHT22;2801;50.972;7.856;2023-04-06T13:31:41;14.30;61.70
5556;DHT22;2801;50.972;7.856;2023-04-06T13:34:08;14.30;61.60
5556;DHT22;2801;50.972;7.856;2023-04-06T13:36:35;14.20;60.60
5556;DHT22;2801;50.972;7.856;2023-04-06T13:39:02;14.10;61.20
5556;DHT22;2801;50.972;7.856;2023-04-06T13:41:29;14.20;62.60
5556;DHT22;2801;50.972;7.856;2023-04-06T13:43:56;14.30;62.90
5556;DHT22;2801;50.972;7.856;2023-04-06T13:46:24;14.30;62.10
5556;DHT22;2801;50.972;7.856;2023-04-06T13:48:51;14.20;61.00
5556;DHT22;2801;50.972;7.856;2023-04-06T13:51:18;14.20;61.40
5556;DHT22;2801;50.972;7.856;2023-04-06T13:53:46;14.20;62.70
5556;DHT22;2801;50.972;7.856;2023-04-06T13:56:13;14.20;62.50
5556;DHT22;2801;50.972;7.856;2023-04-06T13:58:40;14.20;62.60
5556;DHT22;2801;50.972;7.856;2023-04-06T14:01:08;14.30;61.10
5556;DHT22;2801;50.972;7.856;2023-04-06T14:03:37;14.20;62.40
5556;DHT22;2801;50.972;7.856;2023-04-06T14:06:11;14.30;62.30
5556;DHT22;2801;50.972;7.856;2023-04-06T14:08:53;14.20;62.30
5556;DHT22;2801;50.972;7.856;2023-04-06T14:11:20;14.20;62.30
5556;DHT22;2801;50.972;7.856;2023-04-06T14:13:47;14.10;62.20
5556;DHT22;2801;50.972;7.856;2023-04-06T14:16:14;14.10;62.30
5556;DHT22;2801;50.972;7.856;2023-04-06T14:18:41;14.10;61.00
5556;DHT22;2801;50.972;7.856;2023-04-06T14:21:09;14.00;61.60
5556;DHT22;2801;50.972;7.856;2023-04-06T14:23:36;14.00;61.10
5556;DHT22;2801;50.972;7.856;2023-04-06T14:26:05;13.90;61.90
5556;DHT22;2801;50.972;7.856;2023-04-06T14:28:33;13.80;60.50
5556;DHT22;2801;50.972;7.856;2023-04-06T14:31:02;13.80;62.10
5556;DHT22;2801;50.972;7.856;2023-04-06T14:33:38;13.80;62.70
5556;DHT22;2801;50.972;7.856;2023-04-06T14:36:08;13.70;62.10
5556;DHT22;2801;50.972;7.856;2023-04-06T14:38:35;13.50;58.70
5556;DHT22;2801;50.972;7.856;2023-04-06T14:41:02;13.20;60.00
5556;DHT22;2801;50.972;7.856;2023-04-06T14:43:29;13.20;60.90
5556;DHT22;2801;50.972;7.856;2023-04-06T14:46:00;13.20;61.60
5556;DHT22;2801;50.972;7.856;2023-04-06T14:48:28;13.10;61.70
5556;DHT22;2801;50.972;7.856;2023-04-06T14:50:56;13.10;62.30
5556;DHT22;2801;50.972;7.856;2023-04-06T14:53:24;13.00;62.30
5556;DHT22;2801;50.972;7.856;2023-04-06T14:55:52;12.90;62.40
5556;DHT22;2801;50.972;7.856;2023-04-06T14:58:20;12.80;62.10
5556;DHT22;2801;50.972;7.856;2023-04-06T15:00:48;12.80;62.90
5556;DHT22;2801;50.972;7.856;2023-04-06T15:03:15;12.80;63.20
5556;DHT22;2801;50.972;7.856;2023-04-06T15:05:44;12.80;63.60
5556;DHT22;2801;50.972;7.856;2023-04-06T15:08:11;12.80;64.20
5556;DHT22;2801;50.972;7.856;2023-04-06T15:10:40;12.80;63.60
5556;DHT22;2801;50.972;7.856;2023-04-06T15:13:07;12.90;64.10
5556;DHT22;2801;50.972;7.856;2023-04-06T15:15:34;12.90;64.70
5556;DHT22;2801;50.972;7.856;2023-04-06T15:18:02;12.90;64.90
5556;DHT22;2801;50.972;7.856;2023-04-06T15:20:29;12.80;65.00
5556;DHT22;2801;50.972;7.856;2023-04-06T15:22:57;12.80;65.40
5556;DHT22;2801;50.972;7.856;2023-04-06T15:25:24;12.70;65.60
5556;DHT22;2801;50.972;7.856;2023-04-06T15:27:51;12.60;65.70
5556;DHT22;2801;50.972;7.856;2023-04-06T15:30:18;12.60;66.40
5556;DHT22;2801;50.972;7.856;2023-04-06T15:33:11;12.50;66.60
5556;DHT22;2801;50.972;7.856;2023-04-06T15:35:39;12.30;66.70
5556;DHT22;2801;50.972;7.856;2023-04-06T15:38:09;12.20;67.20
5556;DHT22;2801;50.972;7.856;2023-04-06T15:40:48;12.10;67.80
5556;DHT22;2801;50.972;7.856;2023-04-06T15:43:15;12.00;68.40
5556;DHT22;2801;50.972;7.856;2023-04-06T15:45:43;12.00;68.40
5556;DHT22;2801;50.972;7.856;2023-04-06T15:48:10;11.90;68.60
5556;DHT22;2801;50.972;7.856;2023-04-06T15:50:37;11.80;68.90
5556;DHT22;2801;50.972;7.856;2023-04-06T15:53:04;11.80;69.00
5556;DHT22;2801;50.972;7.856;2023-04-06T15:55:31;11.60;69.40
5556;DHT22;2801;50.972;7.856;2023-04-06T15:57:58;11.50;69.50
5556;DHT22;2801;50.972;7.856;2023-04-06T16:00:25;11.50;69.80
5556;DHT22;2801;50.972;7.856;2023-04-06T16:02:54;11.40;69.90
5556;DHT22;2801;50.972;7.856;2023-04-06T16:05:22;11.30;70.10
5556;DHT22;2801;50.972;7.856;2023-04-06T16:07:49;11.20;70.40
5556;DHT22;2801;50.972;7.856;2023-04-06T16:10:17;11.20;70.90
5556;DHT22;2801;50.972;7.856;2023-04-06T16:12:44;11.10;71.30